sensor_id;sensor_type;location;lat;lon;timestamp;pressure;altitude;pressure_sealevel;temperature;humidity
37068;BME280;22982;42.848;25.468;2024-02-21T00:02:36;96925.16;;;4.16;100.00
37068;BME280;22982;42.848;25.468;2024-02-21T00:07:39;96913.75;;;4.23;100.00
37068;BME280;22982;42.848;25.468;2024-02-21T00:12:42;96912.34;;;4.44;100.00
37068;BME280;22982;42.848;25.468;2024-02-21T00:17:44;96912.03;;;4.22;100.00
37068;BME280;22982;42.848;25.468;2024-02-21T00:22:52;96899.53;;;4.02;100.00
37068;BME280;22982;42.848;25.468;2024-02-21T00:27:54;96906.78;;;4.25;100.00
37068;BME280;22982;42.848;25.468;2024-02-21T00:32:58;96900.75;;;4.25;100.00
37068;BME280;22982;42.848;25.468;2024-02-21T00:38:00;96899.81;;;4.26;100.00
37068;BME280;22982;42.848;25.468;2024-02-21T00:43:03;96905.44;;;4.43;100.00
37068;BME280;22982;42.848;25.468;2024-02-21T00:48:05;96908.63;;;4.20;100.00
37068;BME280;22982;42.848;25.468;2024-02-21T00:53:08;96898.41;;;4.48;100.00
37068;BME280;22982;42.848;25.468;2024-02-21T00:58:35;96889.44;;;4.58;100.00
37068;BME280;22982;42.848;25.468;2024-02-21T01:03:39;96884.28;;;4.57;100.00
37068;BME280;22982;42.848;25.468;2024-02-21T01:08:43;96883.09;;;4.70;100.00
37068;BME280;22982;42.848;25.468;2024-02-21T01:13:46;96881.16;;;4.44;100.00
37068;BME280;22982;42.848;25.468;2024-02-21T01:18:49;96879.34;;;4.48;100.00
37068;BME280;22982;42.848;25.468;2024-02-21T01:23:52;96885.81;;;4.66;100.00
37068;BME280;22982;42.848;25.468;2024-02-21T01:29:00;96888.03;;;4.79;100.00
37068;BME280;22982;42.848;25.468;2024-02-21T01:34:03;96885.75;;;4.34;100.00
37068;BME280;22982;42.848;25.468;2024-02-21T01:39:05;96882.03;;;4.45;100.00
37068;BME280;22982;42.848;25.468;2024-02-21T01:44:15;96868.72;;;4.24;100.00
37068;BME280;22982;42.848;25.468;2024-02-21T01:49:17;96869.38;;;4.32;100.00
37068;BME280;22982;42.848;25.468;2024-02-21T01:54:21;96865.91;;;4.32;100.00
37068;BME280;22982;42.848;25.468;2024-02-21T01:59:24;96864.75;;;4.44;100.00
37068;BME280;22982;42.848;25.468;2024-02-21T02:04:27;96850.25;;;4.68;100.00
37068;BME280;22982;42.848;25.468;2024-02-21T02:09:30;96853.25;;;4.84;100.00
37068;BME280;22982;42.848;25.468;2024-02-21T02:14:32;96848.88;;;4.86;100.00
37068;BME280;22982;42.848;25.468;2024-02-21T02:19:35;96849.00;;;4.50;100.00
37068;BME280;22982;42.848;25.468;2024-02-21T02:24:38;96840.03;;;4.62;100.00
37068;BME280;22982;42.848;25.468;2024-02-21T02:29:41;96846.38;;;4.83;100.00
37068;BME280;22982;42.848;25.468;2024-02-21T02:34:44;96837.69;;;4.84;100.00
37068;BME280;22982;42.848;25.468;2024-02-21T02:39:46;96846.88;;;4.95;100.00
37068;BME280;22982;42.848;25.468;2024-02-21T02:44:50;96842.78;;;4.87;100.00
37068;BME280;22982;42.848;25.468;2024-02-21T02:49:52;96845.34;;;4.88;100.00
37068;BME280;22982;42.848;25.468;2024-02-21T02:54:55;96855.59;;;4.93;100.00
37068;BME280;22982;42.848;25.468;2024-02-21T02:59:58;96847.47;;;5.05;100.00
37068;BME280;22982;42.848;25.468;2024-02-21T03:05:24;96858.03;;;4.99;100.00
37068;BME280;22982;42.848;25.468;2024-02-21T03:10:27;96862.38;;;4.98;100.00
37068;BME280;22982;42.848;25.468;2024-02-21T03:15:29;96867.38;;;5.06;100.00
37068;BME280;22982;42.848;25.468;2024-02-21T03:20:37;96857.09;;;5.02;100.00
37068;BME280;22982;42.848;25.468;2024-02-21T03:25:39;96855.41;;;4.69;100.00
37068;BME280;22982;42.848;25.468;2024-02-21T03:30:42;96864.75;;;4.75;100.00
37068;BME280;22982;42.848;25.468;2024-02-21T03:35:45;96873.19;;;4.52;100.00
37068;BME280;22982;42.848;25.468;2024-02-21T03:40:48;96857.94;;;4.39;100.00
37068;BME280;22982;42.848;25.468;2024-02-21T03:45:51;96877.50;;;4.53;100.00
37068;BME280;22982;42.848;25.468;2024-02-21T03:50:54;96882.19;;;4.38;100.00
37068;BME280;22982;42.848;25.468;2024-02-21T03:55:56;96864.16;;;4.34;100.00
37068;BME280;22982;42.848;25.468;2024-02-21T04:01:04;96873.13;;;4.20;100.00
37068;BME280;22982;42.848;25.468;2024-02-21T04:06:07;96875.22;;;4.06;100.00
37068;BME280;22982;42.848;25.468;2024-02-21T04:11:10;96880.63;;;3.97;100.00
37068;BME280;22982;42.848;25.468;2024-02-21T04:16:13;96865.56;;;3.38;100.00
37068;BME280;22982;42.848;25.468;2024-02-21T04:21:17;96879.41;;;3.38;100.00
37068;BME280;22982;42.848;25.468;2024-02-21T04:26:20;96872.31;;;3.45;100.00
37068;BME280;22982;42.848;25.468;2024-02-21T04:31:23;96866.50;;;3.35;100.00
37068;BME280;22982;42.848;25.468;2024-02-21T04:36:25;96874.53;;;3.23;100.00
37068;BME280;22982;42.848;25.468;2024-02-21T04:41:28;96868.91;;;3.43;100.00
37068;BME280;22982;42.848;25.468;2024-02-21T04:46:31;96871.41;;;3.48;100.00
37068;BME280;22982;42.848;25.468;2024-02-21T04:51:34;96865.22;;;3.53;100.00
37068;BME280;22982;42.848;25.468;2024-02-21T04:56:38;96878.06;;;3.20;100.00
37068;BME280;22982;42.848;25.468;2024-02-21T05:01:40;96882.91;;;3.36;100.00
37068;BME280;22982;42.848;25.468;2024-02-21T05:06:43;96885.06;;;3.15;100.00
37068;BME280;22982;42.848;25.468;2024-02-21T05:11:46;96879.03;;;3.16;100.00
37068;BME280;22982;42.848;25.468;2024-02-21T05:16:53;96895.50;;;3.12;100.00
37068;BME280;22982;42.848;25.468;2024-02-21T05:21:56;96902.19;;;3.22;100.00
37068;BME280;22982;42.848;25.468;2024-02-21T05:26:59;96898.09;;;3.12;100.00
37068;BME280;22982;42.848;25.468;2024-02-21T05:32:02;96901.44;;;3.17;100.00
37068;BME280;22982;42.848;25.468;2024-02-21T05:37:04;96895.88;;;2.94;100.00
37068;BME280;22982;42.848;25.468;2024-02-21T05:42:07;96911.22;;;3.03;100.00
37068;BME280;22982;42.848;25.468;2024-02-21T05:47:10;96921.09;;;3.28;100.00
37068;BME280;22982;42.848;25.468;2024-02-21T05:52:14;96935.63;;;3.36;100.00
37068;BME280;22982;42.848;25.468;2024-02-21T05:57:18;96933.88;;;3.37;100.00
37068;BME280;22982;42.848;25.468;2024-02-21T06:02:20;96950.72;;;3.14;100.00
37068;BME280;22982;42.848;25.468;2024-02-21T06:07:26;96945.72;;;3.06;100.00
37068;BME280;22982;42.848;25.468;2024-02-21T06:12:28;96953.06;;;3.28;100.00
37068;BME280;22982;42.848;25.468;2024-02-21T06:17:37;96961.88;;;3.18;100.00
37068;BME280;22982;42.848;25.468;2024-02-21T06:22:40;96956.69;;;3.19;100.00
37068;BME280;22982;42.848;25.468;2024-02-21T06:28:05;96970.28;;;3.73;100.00
37068;BME280;22982;42.848;25.468;2024-02-21T06:33:07;96957.91;;;3.84;100.00
37068;BME280;22982;42.848;25.468;2024-02-21T06:38:15;96965.91;;;4.12;100.00
37068;BME280;22982;42.848;25.468;2024-02-21T06:43:20;96959.44;;;4.30;100.00
37068;BME280;22982;42.848;25.468;2024-02-21T06:48:23;96952.72;;;4.21;100.00
37068;BME280;22982;42.848;25.468;2024-02-21T06:53:25;96956.16;;;4.58;100.00
37068;BME280;22982;42.848;25.468;2024-02-21T06:58:27;96955.34;;;4.89;100.00
37068;BME280;22982;42.848;25.468;2024-02-21T07:03:30;96951.34;;;5.08;100.00
37068;BME280;22982;42.848;25.468;2024-02-21T07:08:32;96943.41;;;5.44;100.00
37068;BME280;22982;42.848;25.468;2024-02-21T07:13:35;96937.28;;;6.31;100.00
37068;BME280;22982;42.848;25.468;2024-02-21T07:18:38;96932.72;;;7.84;100.00
37068;BME280;22982;42.848;25.468;2024-02-21T07:23:41;96932.47;;;7.91;100.00
37068;BME280;22982;42.848;25.468;2024-02-21T07:28:46;96911.56;;;11.50;89.80
37068;BME280;22982;42.848;25.468;2024-02-21T07:33:49;96907.56;;;12.99;70.93
37068;BME280;22982;42.848;25.468;2024-02-21T07:38:52;96883.13;;;15.55;57.83
37068;BME280;22982;42.848;25.468;2024-02-21T07:43:58;96889.47;;;17.10;52.82
37068;BME280;22982;42.848;25.468;2024-02-21T07:49:00;96874.78;;;17.62;50.49
37068;BME280;22982;42.848;25.468;2024-02-21T07:54:04;96879.09;;;18.41;48.33
37068;BME280;22982;42.848;25.468;2024-02-21T07:59:06;96870.44;;;17.61;49.42
37068;BME280;22982;42.848;25.468;2024-02-21T08:04:09;96885.16;;;17.20;47.33
37068;BME280;22982;42.848;25.468;2024-02-21T08:09:13;96886.00;;;14.74;52.26
37068;BME280;22982;42.848;25.468;2024-02-21T08:14:15;96892.78;;;15.17;51.11
37068;BME280;22982;42.848;25.468;2024-02-21T08:19:22;96884.38;;;15.75;49.21
37068;BME280;22982;42.848;25.468;2024-02-21T08:24:25;96885.22;;;15.75;49.96
37068;BME280;22982;42.848;25.468;2024-02-21T08:29:27;96875.88;;;17.37;45.99
37068;BME280;22982;42.848;25.468;2024-02-21T08:34:30;96878.88;;;17.21;45.18
37068;BME280;22982;42.848;25.468;2024-02-21T08:39:36;96880.88;;;16.11;46.70
37068;BME280;22982;42.848;25.468;2024-02-21T08:44:39;96888.44;;;15.16;48.02
37068;BME280;22982;42.848;25.468;2024-02-21T08:49:43;96876.81;;;16.18;47.71
37068;BME280;22982;42.848;25.468;2024-02-21T08:54:46;96873.09;;;15.97;45.64
37068;BME280;22982;42.848;25.468;2024-02-21T08:59:48;96876.09;;;15.04;48.20
37068;BME280;22982;42.848;25.468;2024-02-21T09:04:51;96874.78;;;15.35;48.57
37068;BME280;22982;42.848;25.468;2024-02-21T09:09:53;96878.63;;;16.42;44.64
37068;BME280;22982;42.848;25.468;2024-02-21T09:14:57;96870.88;;;16.63;44.47
37068;BME280;22982;42.848;25.468;2024-02-21T09:19:59;96879.88;;;14.47;47.81
37068;BME280;22982;42.848;25.468;2024-02-21T09:25:06;96895.63;;;13.08;51.62
37068;BME280;22982;42.848;25.468;2024-02-21T09:30:09;96893.81;;;12.19;53.46
37068;BME280;22982;42.848;25.468;2024-02-21T09:35:12;96887.72;;;11.21;59.31
37068;BME280;22982;42.848;25.468;2024-02-21T09:40:18;96892.19;;;11.19;62.66
37068;BME280;22982;42.848;25.468;2024-02-21T09:45:22;96895.69;;;10.51;68.74
37068;BME280;22982;42.848;25.468;2024-02-21T09:50:26;96895.97;;;10.45;72.36
37068;BME280;22982;42.848;25.468;2024-02-21T09:55:31;96896.09;;;10.25;71.46
37068;BME280;22982;42.848;25.468;2024-02-21T10:00:37;96893.50;;;10.60;70.38
37068;BME280;22982;42.848;25.468;2024-02-21T10:05:49;96877.28;;;10.86;67.59
37068;BME280;22982;42.848;25.468;2024-02-21T10:10:53;96871.84;;;10.73;66.75
37068;BME280;22982;42.848;25.468;2024-02-21T10:16:02;96878.22;;;10.85;68.90
37068;BME280;22982;42.848;25.468;2024-02-21T10:21:07;96880.88;;;11.19;66.65
37068;BME280;22982;42.848;25.468;2024-02-21T10:26:09;96866.00;;;11.51;63.44
37068;BME280;22982;42.848;25.468;2024-02-21T10:31:25;96846.19;;;11.93;60.53
37068;BME280;22982;42.848;25.468;2024-02-21T10:36:28;96847.16;;;12.22;59.46
37068;BME280;22982;42.848;25.468;2024-02-21T10:41:34;96825.78;;;13.45;55.80
37068;BME280;22982;42.848;25.468;2024-02-21T10:46:39;96811.81;;;14.52;50.34
37068;BME280;22982;42.848;25.468;2024-02-21T10:51:45;96802.66;;;15.09;47.50
37068;BME280;22982;42.848;25.468;2024-02-21T10:56:50;96796.16;;;13.96;50.11
37068;BME280;22982;42.848;25.468;2024-02-21T11:01:54;96774.34;;;13.67;50.65
37068;BME280;22982;42.848;25.468;2024-02-21T11:07:01;96787.50;;;12.68;51.17
37068;BME280;22982;42.848;25.468;2024-02-21T11:12:10;96781.22;;;12.70;52.72
37068;BME280;22982;42.848;25.468;2024-02-21T11:17:17;96769.88;;;11.79;53.45
37068;BME280;22982;42.848;25.468;2024-02-21T11:22:22;96777.75;;;12.11;52.95
37068;BME280;22982;42.848;25.468;2024-02-21T11:27:27;96771.16;;;12.03;52.67
37068;BME280;22982;42.848;25.468;2024-02-21T11:32:31;96765.75;;;11.91;52.82
37068;BME280;22982;42.848;25.468;2024-02-21T11:37:34;96776.53;;;11.54;54.96
37068;BME280;22982;42.848;25.468;2024-02-21T11:42:42;96770.75;;;11.63;51.69
37068;BME280;22982;42.848;25.468;2024-02-21T11:47:45;96770.34;;;11.55;51.80
37068;BME280;22982;42.848;25.468;2024-02-21T11:52:49;96764.94;;;11.88;51.11
37068;BME280;22982;42.848;25.468;2024-02-21T11:57:51;96753.97;;;11.82;52.15
37068;BME280;22982;42.848;25.468;2024-02-21T12:02:55;96744.84;;;11.57;56.09
37068;BME280;22982;42.848;25.468;2024-02-21T12:08:02;96762.47;;;11.23;60.11
37068;BME280;22982;42.848;25.468;2024-02-21T12:13:10;96756.13;;;10.96;65.08
37068;BME280;22982;42.848;25.468;2024-02-21T12:18:12;96749.72;;;10.68;71.16
37068;BME280;22982;42.848;25.468;2024-02-21T12:23:18;96765.66;;;10.30;79.78
37068;BME280;22982;42.848;25.468;2024-02-21T12:28:21;96755.63;;;9.86;76.74
37068;BME280;22982;42.848;25.468;2024-02-21T12:33:24;96761.97;;;9.45;75.27
37068;BME280;22982;42.848;25.468;2024-02-21T12:38:27;96735.22;;;9.75;77.19
37068;BME280;22982;42.848;25.468;2024-02-21T12:43:30;96734.75;;;10.19;71.33
37068;BME280;22982;42.848;25.468;2024-02-21T12:48:33;96740.69;;;10.23;90.09
37068;BME280;22982;42.848;25.468;2024-02-21T12:53:36;96718.75;;;9.90;97.46
37068;BME280;22982;42.848;25.468;2024-02-21T12:58:39;96728.28;;;9.91;100.00
37068;BME280;22982;42.848;25.468;2024-02-21T13:03:42;96725.16;;;9.85;100.00
37068;BME280;22982;42.848;25.468;2024-02-21T13:08:46;96721.75;;;9.65;100.00
37068;BME280;22982;42.848;25.468;2024-02-21T13:13:48;96715.56;;;9.66;100.00
37068;BME280;22982;42.848;25.468;2024-02-21T13:18:51;96716.03;;;9.74;100.00
37068;BME280;22982;42.848;25.468;2024-02-21T13:23:54;96716.72;;;9.61;100.00
37068;BME280;22982;42.848;25.468;2024-02-21T13:28:57;96707.25;;;9.75;100.00
37068;BME280;22982;42.848;25.468;2024-02-21T13:34:01;96709.28;;;9.70;100.00
37068;BME280;22982;42.848;25.468;2024-02-21T13:39:03;96704.25;;;9.66;95.57
37068;BME280;22982;42.848;25.468;2024-02-21T13:44:11;96700.16;;;9.60;95.89
37068;BME280;22982;42.848;25.468;2024-02-21T13:49:15;96700.78;;;9.65;90.84
37068;BME280;22982;42.848;25.468;2024-02-21T13:54:18;96688.78;;;9.78;86.01
37068;BME280;22982;42.848;25.468;2024-02-21T13:59:21;96700.88;;;9.81;84.34
37068;BME280;22982;42.848;25.468;2024-02-21T14:04:25;96695.78;;;9.61;87.56
37068;BME280;22982;42.848;25.468;2024-02-21T14:09:28;96699.69;;;9.52;92.91
37068;BME280;22982;42.848;25.468;2024-02-21T14:14:35;96718.19;;;9.49;87.57
37068;BME280;22982;42.848;25.468;2024-02-21T14:19:41;96717.84;;;8.82;92.06
37068;BME280;22982;42.848;25.468;2024-02-21T14:24:44;96714.16;;;8.86;98.93
37068;BME280;22982;42.848;25.468;2024-02-21T14:29:51;96711.81;;;8.42;100.00
37068;BME280;22982;42.848;25.468;2024-02-21T14:34:53;96710.22;;;8.58;100.00
37068;BME280;22982;42.848;25.468;2024-02-21T14:39:56;96715.19;;;8.23;100.00
37068;BME280;22982;42.848;25.468;2024-02-21T14:44:58;96715.75;;;8.11;100.00
37068;BME280;22982;42.848;25.468;2024-02-21T14:50:06;96722.72;;;7.90;100.00
37068;BME280;22982;42.848;25.468;2024-02-21T14:55:13;96720.50;;;7.81;100.00
37068;BME280;22982;42.848;25.468;2024-02-21T15:00:16;96710.69;;;7.65;100.00
37068;BME280;22982;42.848;25.468;2024-02-21T15:05:19;96718.47;;;7.67;100.00
37068;BME280;22982;42.848;25.468;2024-02-21T15:10:22;96702.09;;;7.63;100.00
37068;BME280;22982;42.848;25.468;2024-02-21T15:15:24;96707.50;;;7.59;100.00
37068;BME280;22982;42.848;25.468;2024-02-21T15:20:27;96697.84;;;7.61;100.00
37068;BME280;22982;42.848;25.468;2024-02-21T15:25:32;96706.59;;;7.80;100.00
37068;BME280;22982;42.848;25.468;2024-02-21T15:30:38;96700.47;;;7.81;100.00
37068;BME280;22982;42.848;25.468;2024-02-21T15:35:42;96700.69;;;7.55;100.00
37068;BME280;22982;42.848;25.468;2024-02-21T15:40:48;96704.09;;;7.57;100.00
37068;BME280;22982;42.848;25.468;2024-02-21T15:45:51;96698.16;;;7.53;100.00
37068;BME280;22982;42.848;25.468;2024-02-21T15:50:54;96699.25;;;7.47;100.00
37068;BME280;22982;42.848;25.468;2024-02-21T15:55:56;96695.19;;;7.62;100.00
37068;BME280;22982;42.848;25.468;2024-02-21T16:00:59;96708.41;;;7.58;100.00
37068;BME280;22982;42.848;25.468;2024-02-21T16:06:02;96722.34;;;7.57;100.00
37068;BME280;22982;42.848;25.468;2024-02-21T16:16:27;96734.19;;;7.23;100.00
37068;BME280;22982;42.848;25.468;2024-02-21T16:21:29;96736.06;;;7.19;100.00
37068;BME280;22982;42.848;25.468;2024-02-21T16:26:35;96745.16;;;7.31;100.00
37068;BME280;22982;42.848;25.468;2024-02-21T16:31:38;96755.16;;;7.20;100.00
37068;BME280;22982;42.848;25.468;2024-02-21T16:36:59;96744.66;;;6.76;100.00
37068;BME280;22982;42.848;25.468;2024-02-21T16:42:03;96777.53;;;6.56;100.00
37068;BME280;22982;42.848;25.468;2024-02-21T16:47:06;96763.22;;;6.43;100.00
37068;BME280;22982;42.848;25.468;2024-02-21T16:52:10;96759.50;;;6.50;100.00
37068;BME280;22982;42.848;25.468;2024-02-21T16:57:13;96770.88;;;6.24;100.00
37068;BME280;22982;42.848;25.468;2024-02-21T17:02:15;96768.38;;;6.44;100.00
37068;BME280;22982;42.848;25.468;2024-02-21T17:07:20;96774.56;;;6.42;100.00
37068;BME280;22982;42.848;25.468;2024-02-21T17:12:23;96783.22;;;6.42;100.00
37068;BME280;22982;42.848;25.468;2024-02-21T17:17:26;96770.47;;;6.35;100.00
37068;BME280;22982;42.848;25.468;2024-02-21T17:22:28;96787.34;;;6.24;100.00
37068;BME280;22982;42.848;25.468;2024-02-21T17:27:36;96779.84;;;6.15;100.00
37068;BME280;22982;42.848;25.468;2024-02-21T17:32:39;96786.75;;;6.16;100.00
37068;BME280;22982;42.848;25.468;2024-02-21T17:37:42;96792.16;;;6.10;100.00
37068;BME280;22982;42.848;25.468;2024-02-21T17:42:45;96789.81;;;6.02;100.00
37068;BME280;22982;42.848;25.468;2024-02-21T17:47:47;96788.75;;;6.08;100.00
37068;BME280;22982;42.848;25.468;2024-02-21T17:52:50;96783.56;;;6.08;100.00
37068;BME280;22982;42.848;25.468;2024-02-21T17:57:53;96799.13;;;6.09;100.00
37068;BME280;22982;42.848;25.468;2024-02-21T18:02:57;96797.09;;;6.18;100.00
37068;BME280;22982;42.848;25.468;2024-02-21T18:08:00;96821.09;;;6.27;100.00
37068;BME280;22982;42.848;25.468;2024-02-21T18:13:05;96835.63;;;6.08;100.00
37068;BME280;22982;42.848;25.468;2024-02-21T18:18:08;96836.31;;;6.13;100.00
37068;BME280;22982;42.848;25.468;2024-02-21T18:23:10;96830.09;;;6.17;100.00
37068;BME280;22982;42.848;25.468;2024-02-21T18:28:14;96846.22;;;6.28;100.00
37068;BME280;22982;42.848;25.468;2024-02-21T18:33:16;96841.69;;;6.33;100.00
37068;BME280;22982;42.848;25.468;2024-02-21T18:38:19;96842.06;;;6.23;100.00
37068;BME280;22982;42.848;25.468;2024-02-21T18:43:22;96852.69;;;6.17;100.00
37068;BME280;22982;42.848;25.468;2024-02-21T18:48:24;96857.91;;;6.17;100.00
37068;BME280;22982;42.848;25.468;2024-02-21T18:53:27;96862.75;;;6.01;100.00
37068;BME280;22982;42.848;25.468;2024-02-21T18:58:30;96865.22;;;6.05;100.00
37068;BME280;22982;42.848;25.468;2024-02-21T19:03:33;96867.81;;;5.77;100.00
37068;BME280;22982;42.848;25.468;2024-02-21T19:08:36;96871.97;;;5.83;100.00
37068;BME280;22982;42.848;25.468;2024-02-21T19:13:39;96874.84;;;5.75;100.00
37068;BME280;22982;42.848;25.468;2024-02-21T19:18:45;96872.47;;;5.67;100.00
37068;BME280;22982;42.848;25.468;2024-02-21T19:23:49;96871.44;;;5.45;100.00
37068;BME280;22982;42.848;25.468;2024-02-21T19:28:52;96862.66;;;5.47;100.00
37068;BME280;22982;42.848;25.468;2024-02-21T19:33:55;96872.19;;;5.48;100.00
37068;BME280;22982;42.848;25.468;2024-02-21T19:38:58;96883.81;;;5.65;100.00
37068;BME280;22982;42.848;25.468;2024-02-21T19:44:01;96878.94;;;5.54;100.00
37068;BME280;22982;42.848;25.468;2024-02-21T19:49:03;96878.47;;;5.41;100.00
37068;BME280;22982;42.848;25.468;2024-02-21T19:54:07;96881.88;;;5.43;100.00
37068;BME280;22982;42.848;25.468;2024-02-21T19:59:25;96881.31;;;5.33;100.00
37068;BME280;22982;42.848;25.468;2024-02-21T20:04:51;96895.72;;;5.44;100.00
37068;BME280;22982;42.848;25.468;2024-02-21T20:09:57;96894.97;;;5.40;100.00
37068;BME280;22982;42.848;25.468;2024-02-21T20:14:59;96875.66;;;5.19;100.00
37068;BME280;22982;42.848;25.468;2024-02-21T20:20:06;96876.16;;;5.32;100.00
37068;BME280;22982;42.848;25.468;2024-02-21T20:25:10;96888.66;;;5.19;100.00
37068;BME280;22982;42.848;25.468;2024-02-21T20:30:14;96904.28;;;5.17;100.00
37068;BME280;22982;42.848;25.468;2024-02-21T20:35:16;96893.50;;;5.00;100.00
37068;BME280;22982;42.848;25.468;2024-02-21T20:40:19;96900.34;;;5.04;100.00
37068;BME280;22982;42.848;25.468;2024-02-21T20:45:22;96890.00;;;5.03;100.00
37068;BME280;22982;42.848;25.468;2024-02-21T20:50:24;96894.44;;;4.99;100.00
37068;BME280;22982;42.848;25.468;2024-02-21T20:55:28;96893.44;;;5.03;100.00
37068;BME280;22982;42.848;25.468;2024-02-21T21:00:32;96881.63;;;4.91;100.00
37068;BME280;22982;42.848;25.468;2024-02-21T21:05:36;96880.16;;;4.83;100.00
